Baie-Saint-Paul, Canada
Current Conditions -  °F | °C
As of 3:00 PM on Sunday 23 Nov 2014 (Local Time) from CYOY Reporting Station
Overcast Overcast  
Wind Chill:   Ceiling: 100
Heat Index:   Visibility: 0.37mi
Dew Point:   Wind: 2mph
Humidity: 100%   Direction: 230°SW
Pressure: 30.02"   Gusts: NA
Location:  47.43°N, 70.5°W
Report Text: CYOY 232000Z AUTO 23002KT 3/8SM VV001 02/02 A3002 RMK SLP176
Loading
Personal Weather Stations






























Interactive Weather Map New forecast layout! Learn more

10-Day Weather Forecast

Advertisements
Track Severe Weather on mobile